sensor_id;sensor_type;location;lat;lon;timestamp;P1;durP1;ratioP1;P2;durP2;ratioP2
51806;SDS011;37865;51.304;9.536;2023-06-22T00:02:18;15.85;;;13.60;;
51806;SDS011;37865;51.304;9.536;2023-06-22T00:04:44;15.32;;;13.70;;
51806;SDS011;37865;51.304;9.536;2023-06-22T00:07:09;16.35;;;13.68;;
51806;SDS011;37865;51.304;9.536;2023-06-22T00:09:35;16.75;;;15.05;;
51806;SDS011;37865;51.304;9.536;2023-06-22T00:12:00;17.63;;;13.52;;
51806;SDS011;37865;51.304;9.536;2023-06-22T00:14:26;22.92;;;14.98;;
51806;SDS011;37865;51.304;9.536;2023-06-22T00:16:51;16.00;;;13.65;;
51806;SDS011;37865;51.304;9.536;2023-06-22T00:19:20;15.80;;;13.00;;
51806;SDS011;37865;51.304;9.536;2023-06-22T00:21:46;14.75;;;13.40;;
51806;SDS011;37865;51.304;9.536;2023-06-22T00:24:12;22.75;;;14.68;;
51806;SDS011;37865;51.304;9.536;2023-06-22T00:26:38;16.08;;;13.20;;
51806;SDS011;37865;51.304;9.536;2023-06-22T00:29:04;17.85;;;13.38;;
51806;SDS011;37865;51.304;9.536;2023-06-22T00:31:29;15.10;;;13.55;;
51806;SDS011;37865;51.304;9.536;2023-06-22T00:33:54;19.20;;;13.98;;
51806;SDS011;37865;51.304;9.536;2023-06-22T00:36:19;22.52;;;13.65;;
51806;SDS011;37865;51.304;9.536;2023-06-22T00:38:45;22.88;;;14.63;;
51806;SDS011;37865;51.304;9.536;2023-06-22T00:41:10;19.35;;;16.13;;
51806;SDS011;37865;51.304;9.536;2023-06-22T00:43:35;17.95;;;13.52;;
51806;SDS011;37865;51.304;9.536;2023-06-22T00:46:01;22.42;;;14.77;;
51806;SDS011;37865;51.304;9.536;2023-06-22T00:48:26;18.17;;;15.98;;
51806;SDS011;37865;51.304;9.536;2023-06-22T00:50:51;19.67;;;16.15;;
51806;SDS011;37865;51.304;9.536;2023-06-22T00:53:18;23.13;;;15.27;;
51806;SDS011;37865;51.304;9.536;2023-06-22T00:55:44;22.55;;;16.00;;
51806;SDS011;37865;51.304;9.536;2023-06-22T00:58:16;20.15;;;14.55;;
51806;SDS011;37865;51.304;9.536;2023-06-22T01:00:41;23.92;;;15.75;;
51806;SDS011;37865;51.304;9.536;2023-06-22T01:03:07;17.90;;;16.15;;
51806;SDS011;37865;51.304;9.536;2023-06-22T01:05:34;25.50;;;16.35;;
51806;SDS011;37865;51.304;9.536;2023-06-22T01:10:40;19.75;;;14.93;;
51806;SDS011;37865;51.304;9.536;2023-06-22T01:13:27;30.00;;;16.05;;
51806;SDS011;37865;51.304;9.536;2023-06-22T01:18:26;22.55;;;15.25;;
51806;SDS011;37865;51.304;9.536;2023-06-22T01:20:55;24.67;;;15.18;;
51806;SDS011;37865;51.304;9.536;2023-06-22T01:26:19;24.90;;;15.90;;
51806;SDS011;37865;51.304;9.536;2023-06-22T01:28:53;24.17;;;14.63;;
51806;SDS011;37865;51.304;9.536;2023-06-22T01:31:22;26.13;;;15.57;;
51806;SDS011;37865;51.304;9.536;2023-06-22T01:33:57;28.27;;;16.88;;
51806;SDS011;37865;51.304;9.536;2023-06-22T01:36:25;29.75;;;16.60;;
51806;SDS011;37865;51.304;9.536;2023-06-22T01:38:51;30.83;;;14.70;;
51806;SDS011;37865;51.304;9.536;2023-06-22T01:41:18;16.98;;;15.27;;
51806;SDS011;37865;51.304;9.536;2023-06-22T01:43:44;22.08;;;14.52;;
51806;SDS011;37865;51.304;9.536;2023-06-22T01:46:10;23.77;;;16.90;;
51806;SDS011;37865;51.304;9.536;2023-06-22T01:48:37;24.67;;;15.43;;
51806;SDS011;37865;51.304;9.536;2023-06-22T01:51:04;25.63;;;14.02;;
51806;SDS011;37865;51.304;9.536;2023-06-22T01:53:29;14.90;;;13.57;;
51806;SDS011;37865;51.304;9.536;2023-06-22T01:55:55;23.15;;;14.93;;
51806;SDS011;37865;51.304;9.536;2023-06-22T01:58:21;20.77;;;16.20;;
51806;SDS011;37865;51.304;9.536;2023-06-22T02:01:06;30.15;;;17.13;;
51806;SDS011;37865;51.304;9.536;2023-06-22T02:03:37;24.88;;;16.55;;
51806;SDS011;37865;51.304;9.536;2023-06-22T02:06:11;23.33;;;15.63;;
51806;SDS011;37865;51.304;9.536;2023-06-22T02:08:41;19.85;;;16.67;;
51806;SDS011;37865;51.304;9.536;2023-06-22T02:11:15;21.73;;;16.50;;
51806;SDS011;37865;51.304;9.536;2023-06-22T02:13:43;18.40;;;16.55;;
51806;SDS011;37865;51.304;9.536;2023-06-22T02:16:13;16.10;;;13.85;;
51806;SDS011;37865;51.304;9.536;2023-06-22T02:18:47;28.70;;;14.55;;
51806;SDS011;37865;51.304;9.536;2023-06-22T02:21:15;21.63;;;14.52;;
51806;SDS011;37865;51.304;9.536;2023-06-22T02:23:41;34.50;;;15.57;;
51806;SDS011;37865;51.304;9.536;2023-06-22T02:26:06;20.52;;;14.82;;
51806;SDS011;37865;51.304;9.536;2023-06-22T02:28:31;15.38;;;13.73;;
51806;SDS011;37865;51.304;9.536;2023-06-22T02:30:57;32.80;;;16.10;;
51806;SDS011;37865;51.304;9.536;2023-06-22T02:33:22;22.85;;;15.95;;
51806;SDS011;37865;51.304;9.536;2023-06-22T02:35:47;22.25;;;14.75;;
51806;SDS011;37865;51.304;9.536;2023-06-22T02:38:14;19.88;;;13.82;;
51806;SDS011;37865;51.304;9.536;2023-06-22T02:40:40;18.50;;;14.52;;
51806;SDS011;37865;51.304;9.536;2023-06-22T02:43:05;16.00;;;14.30;;
51806;SDS011;37865;51.304;9.536;2023-06-22T02:45:30;19.50;;;14.75;;
51806;SDS011;37865;51.304;9.536;2023-06-22T02:47:56;21.35;;;15.60;;
51806;SDS011;37865;51.304;9.536;2023-06-22T02:50:21;20.13;;;14.45;;
51806;SDS011;37865;51.304;9.536;2023-06-22T02:52:47;26.08;;;14.40;;
51806;SDS011;37865;51.304;9.536;2023-06-22T02:55:12;17.17;;;14.45;;
51806;SDS011;37865;51.304;9.536;2023-06-22T02:57:37;22.73;;;14.05;;
51806;SDS011;37865;51.304;9.536;2023-06-22T03:00:03;29.38;;;14.70;;
51806;SDS011;37865;51.304;9.536;2023-06-22T03:02:48;35.08;;;16.42;;
51806;SDS011;37865;51.304;9.536;2023-06-22T03:05:14;25.67;;;15.07;;
51806;SDS011;37865;51.304;9.536;2023-06-22T03:07:43;29.52;;;14.80;;
51806;SDS011;37865;51.304;9.536;2023-06-22T03:10:09;27.60;;;12.63;;
51806;SDS011;37865;51.304;9.536;2023-06-22T03:12:36;23.65;;;13.95;;
51806;SDS011;37865;51.304;9.536;2023-06-22T03:15:06;19.45;;;12.48;;
51806;SDS011;37865;51.304;9.536;2023-06-22T03:17:33;18.27;;;12.90;;
51806;SDS011;37865;51.304;9.536;2023-06-22T03:19:58;36.22;;;14.02;;
51806;SDS011;37865;51.304;9.536;2023-06-22T03:22:24;21.15;;;13.27;;
51806;SDS011;37865;51.304;9.536;2023-06-22T03:24:49;30.65;;;13.07;;
51806;SDS011;37865;51.304;9.536;2023-06-22T03:27:14;27.70;;;14.05;;
51806;SDS011;37865;51.304;9.536;2023-06-22T03:29:40;31.17;;;13.57;;
51806;SDS011;37865;51.304;9.536;2023-06-22T03:32:05;25.60;;;12.23;;
51806;SDS011;37865;51.304;9.536;2023-06-22T03:34:31;23.55;;;14.27;;
51806;SDS011;37865;51.304;9.536;2023-06-22T03:36:59;21.55;;;13.50;;
51806;SDS011;37865;51.304;9.536;2023-06-22T03:39:25;21.10;;;11.93;;
51806;SDS011;37865;51.304;9.536;2023-06-22T03:41:50;25.27;;;13.07;;
51806;SDS011;37865;51.304;9.536;2023-06-22T03:44:15;19.30;;;14.05;;
51806;SDS011;37865;51.304;9.536;2023-06-22T03:46:41;30.45;;;15.43;;
51806;SDS011;37865;51.304;9.536;2023-06-22T03:49:06;19.38;;;13.60;;
51806;SDS011;37865;51.304;9.536;2023-06-22T03:51:32;20.27;;;13.80;;
51806;SDS011;37865;51.304;9.536;2023-06-22T03:53:57;19.27;;;14.00;;
51806;SDS011;37865;51.304;9.536;2023-06-22T03:56:23;36.47;;;13.52;;
51806;SDS011;37865;51.304;9.536;2023-06-22T03:58:48;23.63;;;13.52;;
51806;SDS011;37865;51.304;9.536;2023-06-22T04:01:14;24.05;;;15.93;;
51806;SDS011;37865;51.304;9.536;2023-06-22T04:03:40;17.02;;;15.07;;
51806;SDS011;37865;51.304;9.536;2023-06-22T04:06:06;20.95;;;15.85;;
51806;SDS011;37865;51.304;9.536;2023-06-22T04:08:31;18.80;;;14.75;;
51806;SDS011;37865;51.304;9.536;2023-06-22T04:10:57;21.60;;;15.43;;
51806;SDS011;37865;51.304;9.536;2023-06-22T04:13:22;18.45;;;15.82;;
51806;SDS011;37865;51.304;9.536;2023-06-22T04:15:47;16.45;;;14.75;;
51806;SDS011;37865;51.304;9.536;2023-06-22T04:18:12;25.20;;;17.45;;
51806;SDS011;37865;51.304;9.536;2023-06-22T04:20:38;17.80;;;16.00;;
51806;SDS011;37865;51.304;9.536;2023-06-22T04:23:03;17.13;;;15.35;;
51806;SDS011;37865;51.304;9.536;2023-06-22T04:25:29;27.80;;;15.57;;
51806;SDS011;37865;51.304;9.536;2023-06-22T04:27:54;22.50;;;16.75;;
51806;SDS011;37865;51.304;9.536;2023-06-22T04:30:19;27.33;;;17.30;;
51806;SDS011;37865;51.304;9.536;2023-06-22T04:32:45;25.40;;;17.08;;
51806;SDS011;37865;51.304;9.536;2023-06-22T04:35:10;23.25;;;15.93;;
51806;SDS011;37865;51.304;9.536;2023-06-22T04:37:37;26.83;;;16.00;;
51806;SDS011;37865;51.304;9.536;2023-06-22T04:40:02;21.63;;;16.58;;
51806;SDS011;37865;51.304;9.536;2023-06-22T04:42:30;16.90;;;15.18;;
51806;SDS011;37865;51.304;9.536;2023-06-22T04:44:57;21.90;;;17.13;;
51806;SDS011;37865;51.304;9.536;2023-06-22T04:47:22;24.98;;;15.75;;
51806;SDS011;37865;51.304;9.536;2023-06-22T04:49:47;19.27;;;14.77;;
51806;SDS011;37865;51.304;9.536;2023-06-22T04:52:13;20.60;;;15.10;;
51806;SDS011;37865;51.304;9.536;2023-06-22T04:54:39;23.67;;;16.60;;
51806;SDS011;37865;51.304;9.536;2023-06-22T04:59:38;22.30;;;15.65;;
51806;SDS011;37865;51.304;9.536;2023-06-22T05:02:06;20.20;;;15.93;;
51806;SDS011;37865;51.304;9.536;2023-06-22T05:04:32;27.67;;;17.33;;
51806;SDS011;37865;51.304;9.536;2023-06-22T05:06:58;20.55;;;15.00;;
51806;SDS011;37865;51.304;9.536;2023-06-22T05:09:25;17.85;;;15.88;;
51806;SDS011;37865;51.304;9.536;2023-06-22T05:11:50;20.98;;;16.75;;
51806;SDS011;37865;51.304;9.536;2023-06-22T05:14:16;24.15;;;15.75;;
51806;SDS011;37865;51.304;9.536;2023-06-22T05:16:42;21.52;;;14.73;;
51806;SDS011;37865;51.304;9.536;2023-06-22T05:19:08;20.63;;;15.30;;
51806;SDS011;37865;51.304;9.536;2023-06-22T05:21:34;19.77;;;14.48;;
51806;SDS011;37865;51.304;9.536;2023-06-22T05:24:00;15.55;;;13.75;;
51806;SDS011;37865;51.304;9.536;2023-06-22T05:26:27;23.80;;;14.82;;
51806;SDS011;37865;51.304;9.536;2023-06-22T05:28:56;20.05;;;14.25;;
51806;SDS011;37865;51.304;9.536;2023-06-22T05:31:22;18.23;;;14.70;;
51806;SDS011;37865;51.304;9.536;2023-06-22T05:33:48;22.73;;;15.10;;
51806;SDS011;37865;51.304;9.536;2023-06-22T05:36:14;26.27;;;14.82;;
51806;SDS011;37865;51.304;9.536;2023-06-22T05:38:40;21.98;;;15.25;;
51806;SDS011;37865;51.304;9.536;2023-06-22T05:41:06;16.45;;;13.52;;
51806;SDS011;37865;51.304;9.536;2023-06-22T05:43:32;21.77;;;13.70;;
51806;SDS011;37865;51.304;9.536;2023-06-22T05:45:59;19.23;;;12.93;;
51806;SDS011;37865;51.304;9.536;2023-06-22T05:48:25;17.88;;;13.18;;
51806;SDS011;37865;51.304;9.536;2023-06-22T05:50:50;18.42;;;14.10;;
51806;SDS011;37865;51.304;9.536;2023-06-22T05:53:15;23.38;;;14.85;;
51806;SDS011;37865;51.304;9.536;2023-06-22T05:55:41;24.45;;;13.75;;
51806;SDS011;37865;51.304;9.536;2023-06-22T05:58:07;21.60;;;14.13;;
51806;SDS011;37865;51.304;9.536;2023-06-22T06:00:32;21.50;;;13.07;;
51806;SDS011;37865;51.304;9.536;2023-06-22T06:02:58;17.45;;;12.93;;
51806;SDS011;37865;51.304;9.536;2023-06-22T06:05:28;13.98;;;12.35;;
51806;SDS011;37865;51.304;9.536;2023-06-22T06:07:53;17.60;;;11.25;;
51806;SDS011;37865;51.304;9.536;2023-06-22T06:10:18;22.25;;;12.90;;
51806;SDS011;37865;51.304;9.536;2023-06-22T06:12:44;16.77;;;11.20;;
51806;SDS011;37865;51.304;9.536;2023-06-22T06:15:09;14.50;;;11.70;;
51806;SDS011;37865;51.304;9.536;2023-06-22T06:17:35;12.73;;;11.15;;
51806;SDS011;37865;51.304;9.536;2023-06-22T06:20:00;13.82;;;10.23;;
51806;SDS011;37865;51.304;9.536;2023-06-22T06:22:26;12.27;;;10.85;;
51806;SDS011;37865;51.304;9.536;2023-06-22T06:24:51;11.93;;;10.82;;
51806;SDS011;37865;51.304;9.536;2023-06-22T06:27:17;12.32;;;10.10;;
51806;SDS011;37865;51.304;9.536;2023-06-22T06:29:45;20.50;;;10.60;;
51806;SDS011;37865;51.304;9.536;2023-06-22T06:32:13;13.45;;;10.07;;
51806;SDS011;37865;51.304;9.536;2023-06-22T06:34:38;22.00;;;10.68;;
51806;SDS011;37865;51.304;9.536;2023-06-22T06:37:03;12.13;;;10.35;;
51806;SDS011;37865;51.304;9.536;2023-06-22T06:39:28;11.10;;;9.88;;
51806;SDS011;37865;51.304;9.536;2023-06-22T06:41:54;17.88;;;10.48;;
51806;SDS011;37865;51.304;9.536;2023-06-22T06:44:19;11.82;;;10.20;;
51806;SDS011;37865;51.304;9.536;2023-06-22T06:46:44;15.57;;;11.57;;
51806;SDS011;37865;51.304;9.536;2023-06-22T06:49:10;9.95;;;9.05;;
51806;SDS011;37865;51.304;9.536;2023-06-22T06:51:35;12.20;;;10.57;;
51806;SDS011;37865;51.304;9.536;2023-06-22T06:54:01;17.27;;;11.18;;
51806;SDS011;37865;51.304;9.536;2023-06-22T06:56:28;20.40;;;11.95;;
51806;SDS011;37865;51.304;9.536;2023-06-22T06:58:54;17.65;;;11.02;;
51806;SDS011;37865;51.304;9.536;2023-06-22T07:01:20;12.55;;;11.13;;
51806;SDS011;37865;51.304;9.536;2023-06-22T07:03:45;16.00;;;10.90;;
51806;SDS011;37865;51.304;9.536;2023-06-22T07:06:11;17.98;;;10.00;;
51806;SDS011;37865;51.304;9.536;2023-06-22T07:08:36;11.45;;;10.02;;
51806;SDS011;37865;51.304;9.536;2023-06-22T07:11:02;12.88;;;9.55;;
51806;SDS011;37865;51.304;9.536;2023-06-22T07:13:27;10.68;;;9.43;;
51806;SDS011;37865;51.304;9.536;2023-06-22T07:15:52;10.35;;;9.35;;
51806;SDS011;37865;51.304;9.536;2023-06-22T07:18:18;9.90;;;8.90;;
51806;SDS011;37865;51.304;9.536;2023-06-22T07:20:43;12.27;;;9.07;;
51806;SDS011;37865;51.304;9.536;2023-06-22T07:23:09;8.48;;;6.63;;
51806;SDS011;37865;51.304;9.536;2023-06-22T07:25:34;9.68;;;8.70;;
51806;SDS011;37865;51.304;9.536;2023-06-22T07:28:03;11.32;;;8.65;;
51806;SDS011;37865;51.304;9.536;2023-06-22T07:30:30;8.02;;;7.25;;
51806;SDS011;37865;51.304;9.536;2023-06-22T07:32:57;15.60;;;7.65;;
51806;SDS011;37865;51.304;9.536;2023-06-22T07:35:23;12.43;;;8.25;;
51806;SDS011;37865;51.304;9.536;2023-06-22T07:37:49;14.57;;;8.32;;
51806;SDS011;37865;51.304;9.536;2023-06-22T07:40:14;9.35;;;7.85;;
51806;SDS011;37865;51.304;9.536;2023-06-22T07:42:39;9.02;;;7.85;;
51806;SDS011;37865;51.304;9.536;2023-06-22T07:45:06;8.05;;;7.25;;
51806;SDS011;37865;51.304;9.536;2023-06-22T07:47:33;8.95;;;8.15;;
51806;SDS011;37865;51.304;9.536;2023-06-22T07:50:00;8.38;;;7.25;;
51806;SDS011;37865;51.304;9.536;2023-06-22T07:52:27;9.55;;;8.23;;
51806;SDS011;37865;51.304;9.536;2023-06-22T07:54:52;10.30;;;8.68;;
51806;SDS011;37865;51.304;9.536;2023-06-22T07:57:18;11.02;;;7.47;;
51806;SDS011;37865;51.304;9.536;2023-06-22T07:59:43;10.32;;;8.15;;
51806;SDS011;37865;51.304;9.536;2023-06-22T08:02:09;10.93;;;7.18;;
51806;SDS011;37865;51.304;9.536;2023-06-22T08:04:34;10.38;;;8.20;;
51806;SDS011;37865;51.304;9.536;2023-06-22T08:07:00;8.43;;;6.72;;
51806;SDS011;37865;51.304;9.536;2023-06-22T08:09:31;8.35;;;7.15;;
51806;SDS011;37865;51.304;9.536;2023-06-22T08:11:57;19.38;;;8.57;;
51806;SDS011;37865;51.304;9.536;2023-06-22T08:14:23;8.10;;;7.28;;
51806;SDS011;37865;51.304;9.536;2023-06-22T08:16:50;13.68;;;7.88;;
51806;SDS011;37865;51.304;9.536;2023-06-22T08:19:15;7.10;;;6.22;;
51806;SDS011;37865;51.304;9.536;2023-06-22T08:21:42;11.52;;;7.43;;
51806;SDS011;37865;51.304;9.536;2023-06-22T08:24:07;19.10;;;6.60;;
51806;SDS011;37865;51.304;9.536;2023-06-22T08:26:33;7.22;;;6.53;;
51806;SDS011;37865;51.304;9.536;2023-06-22T08:29:02;8.65;;;7.80;;
51806;SDS011;37865;51.304;9.536;2023-06-22T08:31:27;7.65;;;6.93;;
51806;SDS011;37865;51.304;9.536;2023-06-22T08:33:53;13.68;;;7.10;;
51806;SDS011;37865;51.304;9.536;2023-06-22T08:36:18;7.68;;;6.93;;
51806;SDS011;37865;51.304;9.536;2023-06-22T08:38:43;7.07;;;6.38;;
51806;SDS011;37865;51.304;9.536;2023-06-22T08:41:09;9.75;;;7.07;;
51806;SDS011;37865;51.304;9.536;2023-06-22T08:43:35;10.65;;;7.30;;
51806;SDS011;37865;51.304;9.536;2023-06-22T08:46:00;9.43;;;7.03;;
51806;SDS011;37865;51.304;9.536;2023-06-22T08:48:27;8.65;;;7.47;;
51806;SDS011;37865;51.304;9.536;2023-06-22T08:50:53;7.30;;;6.32;;
51806;SDS011;37865;51.304;9.536;2023-06-22T08:53:18;6.72;;;5.85;;
51806;SDS011;37865;51.304;9.536;2023-06-22T08:55:43;9.02;;;7.63;;
51806;SDS011;37865;51.304;9.536;2023-06-22T08:58:10;8.55;;;7.22;;
51806;SDS011;37865;51.304;9.536;2023-06-22T09:00:35;11.30;;;6.60;;
51806;SDS011;37865;51.304;9.536;2023-06-22T09:03:00;7.75;;;6.60;;
51806;SDS011;37865;51.304;9.536;2023-06-22T09:05:26;11.77;;;7.18;;
51806;SDS011;37865;51.304;9.536;2023-06-22T09:07:51;9.93;;;7.28;;
51806;SDS011;37865;51.304;9.536;2023-06-22T09:10:17;9.15;;;7.20;;
51806;SDS011;37865;51.304;9.536;2023-06-22T09:12:43;9.27;;;6.93;;
51806;SDS011;37865;51.304;9.536;2023-06-22T09:15:09;8.55;;;7.68;;
51806;SDS011;37865;51.304;9.536;2023-06-22T09:17:35;11.32;;;7.22;;
51806;SDS011;37865;51.304;9.536;2023-06-22T09:20:01;10.48;;;7.65;;
51806;SDS011;37865;51.304;9.536;2023-06-22T09:22:27;13.65;;;8.00;;
51806;SDS011;37865;51.304;9.536;2023-06-22T09:24:54;9.35;;;7.30;;
51806;SDS011;37865;51.304;9.536;2023-06-22T09:27:20;8.63;;;7.57;;
51806;SDS011;37865;51.304;9.536;2023-06-22T09:29:46;10.88;;;6.82;;
51806;SDS011;37865;51.304;9.536;2023-06-22T09:32:11;11.15;;;7.32;;
51806;SDS011;37865;51.304;9.536;2023-06-22T09:34:37;10.15;;;7.63;;
51806;SDS011;37865;51.304;9.536;2023-06-22T09:37:02;8.55;;;7.72;;
51806;SDS011;37865;51.304;9.536;2023-06-22T09:39:27;10.88;;;6.70;;
51806;SDS011;37865;51.304;9.536;2023-06-22T09:41:53;10.52;;;7.28;;
51806;SDS011;37865;51.304;9.536;2023-06-22T09:44:18;15.85;;;7.45;;
51806;SDS011;37865;51.304;9.536;2023-06-22T09:46:43;7.07;;;6.32;;
51806;SDS011;37865;51.304;9.536;2023-06-22T09:49:09;10.32;;;7.57;;
51806;SDS011;37865;51.304;9.536;2023-06-22T09:51:34;10.68;;;7.10;;
51806;SDS011;37865;51.304;9.536;2023-06-22T09:53:59;12.15;;;7.68;;
51806;SDS011;37865;51.304;9.536;2023-06-22T09:56:25;9.50;;;7.60;;
51806;SDS011;37865;51.304;9.536;2023-06-22T09:58:53;9.65;;;7.80;;
51806;SDS011;37865;51.304;9.536;2023-06-22T10:01:18;11.98;;;6.72;;
51806;SDS011;37865;51.304;9.536;2023-06-22T10:03:43;10.85;;;6.22;;
51806;SDS011;37865;51.304;9.536;2023-06-22T10:06:09;7.10;;;6.43;;
51806;SDS011;37865;51.304;9.536;2023-06-22T10:08:34;12.13;;;7.18;;
51806;SDS011;37865;51.304;9.536;2023-06-22T10:11:00;8.90;;;8.00;;
51806;SDS011;37865;51.304;9.536;2023-06-22T10:13:26;6.72;;;6.13;;
51806;SDS011;37865;51.304;9.536;2023-06-22T10:15:51;7.32;;;5.85;;
51806;SDS011;37865;51.304;9.536;2023-06-22T10:18:19;6.63;;;6.03;;
51806;SDS011;37865;51.304;9.536;2023-06-22T10:20:47;7.50;;;6.03;;
51806;SDS011;37865;51.304;9.536;2023-06-22T10:23:14;10.73;;;6.20;;
51806;SDS011;37865;51.304;9.536;2023-06-22T10:25:39;10.38;;;6.93;;
51806;SDS011;37865;51.304;9.536;2023-06-22T10:28:05;7.22;;;6.53;;
51806;SDS011;37865;51.304;9.536;2023-06-22T10:30:30;7.63;;;6.05;;
51806;SDS011;37865;51.304;9.536;2023-06-22T10:32:55;16.33;;;5.97;;
51806;SDS011;37865;51.304;9.536;2023-06-22T10:35:20;6.30;;;5.38;;
51806;SDS011;37865;51.304;9.536;2023-06-22T10:37:46;6.68;;;6.03;;
51806;SDS011;37865;51.304;9.536;2023-06-22T10:40:15;9.63;;;6.18;;
51806;SDS011;37865;51.304;9.536;2023-06-22T10:42:41;7.45;;;6.70;;
51806;SDS011;37865;51.304;9.536;2023-06-22T10:45:07;6.13;;;5.53;;
51806;SDS011;37865;51.304;9.536;2023-06-22T10:47:34;6.03;;;5.47;;
51806;SDS011;37865;51.304;9.536;2023-06-22T10:50:00;9.88;;;6.40;;
51806;SDS011;37865;51.304;9.536;2023-06-22T10:52:26;7.35;;;5.95;;
51806;SDS011;37865;51.304;9.536;2023-06-22T10:54:51;6.47;;;5.88;;
51806;SDS011;37865;51.304;9.536;2023-06-22T10:57:17;12.65;;;7.03;;
51806;SDS011;37865;51.304;9.536;2023-06-22T10:59:43;16.67;;;6.18;;
51806;SDS011;37865;51.304;9.536;2023-06-22T11:02:08;6.50;;;5.90;;
51806;SDS011;37865;51.304;9.536;2023-06-22T11:04:33;7.57;;;6.97;;
51806;SDS011;37865;51.304;9.536;2023-06-22T11:06:59;9.80;;;5.72;;
51806;SDS011;37865;51.304;9.536;2023-06-22T11:09:24;7.05;;;6.35;;
51806;SDS011;37865;51.304;9.536;2023-06-22T11:11:50;10.95;;;5.55;;
51806;SDS011;37865;51.304;9.536;2023-06-22T11:14:18;7.75;;;6.57;;
51806;SDS011;37865;51.304;9.536;2023-06-22T11:16:44;6.25;;;5.57;;
51806;SDS011;37865;51.304;9.536;2023-06-22T11:19:09;8.85;;;7.50;;
51806;SDS011;37865;51.304;9.536;2023-06-22T11:21:34;8.13;;;7.35;;
51806;SDS011;37865;51.304;9.536;2023-06-22T11:24:00;7.20;;;6.15;;
51806;SDS011;37865;51.304;9.536;2023-06-22T11:26:25;8.15;;;7.35;;
51806;SDS011;37865;51.304;9.536;2023-06-22T11:28:53;8.45;;;6.60;;
51806;SDS011;37865;51.304;9.536;2023-06-22T11:31:19;7.50;;;6.47;;
51806;SDS011;37865;51.304;9.536;2023-06-22T11:33:44;6.97;;;6.38;;
51806;SDS011;37865;51.304;9.536;2023-06-22T11:36:11;6.90;;;6.30;;
51806;SDS011;37865;51.304;9.536;2023-06-22T11:38:36;8.15;;;6.63;;
51806;SDS011;37865;51.304;9.536;2023-06-22T11:41:05;8.13;;;5.90;;
51806;SDS011;37865;51.304;9.536;2023-06-22T11:43:31;5.90;;;5.40;;
51806;SDS011;37865;51.304;9.536;2023-06-22T11:45:57;10.18;;;6.72;;
51806;SDS011;37865;51.304;9.536;2023-06-22T11:48:23;7.35;;;6.65;;
51806;SDS011;37865;51.304;9.536;2023-06-22T11:50:49;13.40;;;7.05;;
51806;SDS011;37865;51.304;9.536;2023-06-22T11:53:14;6.72;;;6.07;;
51806;SDS011;37865;51.304;9.536;2023-06-22T11:55:41;7.60;;;6.15;;
51806;SDS011;37865;51.304;9.536;2023-06-22T11:58:07;9.57;;;6.05;;
51806;SDS011;37865;51.304;9.536;2023-06-22T12:00:33;6.68;;;6.00;;
51806;SDS011;37865;51.304;9.536;2023-06-22T12:02:58;6.95;;;5.30;;
51806;SDS011;37865;51.304;9.536;2023-06-22T12:05:24;8.05;;;6.03;;
51806;SDS011;37865;51.304;9.536;2023-06-22T12:07:50;5.78;;;5.28;;
51806;SDS011;37865;51.304;9.536;2023-06-22T12:10:17;5.28;;;4.82;;
51806;SDS011;37865;51.304;9.536;2023-06-22T12:12:43;4.03;;;3.58;;
51806;SDS011;37865;51.304;9.536;2023-06-22T12:15:09;7.43;;;4.82;;
51806;SDS011;37865;51.304;9.536;2023-06-22T12:17:35;6.07;;;5.57;;
51806;SDS011;37865;51.304;9.536;2023-06-22T12:20:00;5.57;;;4.65;;
51806;SDS011;37865;51.304;9.536;2023-06-22T12:22:26;6.13;;;5.53;;
51806;SDS011;37865;51.304;9.536;2023-06-22T12:24:52;6.10;;;5.50;;
51806;SDS011;37865;51.304;9.536;2023-06-22T12:27:17;5.97;;;5.38;;
51806;SDS011;37865;51.304;9.536;2023-06-22T12:29:45;6.93;;;5.30;;
51806;SDS011;37865;51.304;9.536;2023-06-22T12:32:11;6.07;;;4.78;;
51806;SDS011;37865;51.304;9.536;2023-06-22T12:34:38;13.07;;;6.18;;
51806;SDS011;37865;51.304;9.536;2023-06-22T12:37:04;6.65;;;6.05;;
51806;SDS011;37865;51.304;9.536;2023-06-22T12:39:30;8.93;;;6.78;;
51806;SDS011;37865;51.304;9.536;2023-06-22T12:41:56;6.63;;;6.00;;
51806;SDS011;37865;51.304;9.536;2023-06-22T12:44:21;7.37;;;6.63;;
51806;SDS011;37865;51.304;9.536;2023-06-22T12:46:47;5.73;;;5.23;;
51806;SDS011;37865;51.304;9.536;2023-06-22T12:49:12;6.72;;;6.00;;
51806;SDS011;37865;51.304;9.536;2023-06-22T12:51:41;8.07;;;5.85;;
51806;SDS011;37865;51.304;9.536;2023-06-22T12:54:09;7.18;;;5.78;;
51806;SDS011;37865;51.304;9.536;2023-06-22T12:56:35;6.63;;;6.03;;
51806;SDS011;37865;51.304;9.536;2023-06-22T12:59:03;12.15;;;6.65;;
51806;SDS011;37865;51.304;9.536;2023-06-22T13:01:29;7.20;;;6.45;;
51806;SDS011;37865;51.304;9.536;2023-06-22T13:03:55;8.52;;;7.00;;
51806;SDS011;37865;51.304;9.536;2023-06-22T13:06:21;8.02;;;7.05;;
51806;SDS011;37865;51.304;9.536;2023-06-22T13:08:47;8.07;;;7.20;;
51806;SDS011;37865;51.304;9.536;2023-06-22T13:11:12;7.95;;;7.15;;
51806;SDS011;37865;51.304;9.536;2023-06-22T13:13:38;8.70;;;5.85;;
51806;SDS011;37865;51.304;9.536;2023-06-22T13:16:04;10.25;;;6.53;;
51806;SDS011;37865;51.304;9.536;2023-06-22T13:18:29;11.03;;;6.43;;
51806;SDS011;37865;51.304;9.536;2023-06-22T13:20:54;7.70;;;6.90;;
51806;SDS011;37865;51.304;9.536;2023-06-22T13:23:20;10.07;;;7.97;;
51806;SDS011;37865;51.304;9.536;2023-06-22T13:25:46;8.13;;;7.43;;
51806;SDS011;37865;51.304;9.536;2023-06-22T13:28:11;8.75;;;7.93;;
51806;SDS011;37865;51.304;9.536;2023-06-22T13:30:38;8.40;;;6.43;;
51806;SDS011;37865;51.304;9.536;2023-06-22T13:33:07;9.15;;;7.07;;
51806;SDS011;37865;51.304;9.536;2023-06-22T13:35:33;10.80;;;7.85;;
51806;SDS011;37865;51.304;9.536;2023-06-22T13:38:00;7.72;;;6.93;;
51806;SDS011;37865;51.304;9.536;2023-06-22T13:40:25;8.80;;;7.90;;
51806;SDS011;37865;51.304;9.536;2023-06-22T13:42:50;9.73;;;6.30;;
51806;SDS011;37865;51.304;9.536;2023-06-22T13:45:16;7.30;;;6.60;;
51806;SDS011;37865;51.304;9.536;2023-06-22T13:47:42;8.55;;;6.13;;
51806;SDS011;37865;51.304;9.536;2023-06-22T13:50:07;11.13;;;9.65;;
51806;SDS011;37865;51.304;9.536;2023-06-22T13:52:33;13.20;;;7.60;;
51806;SDS011;37865;51.304;9.536;2023-06-22T13:54:59;13.73;;;8.25;;
51806;SDS011;37865;51.304;9.536;2023-06-22T13:57:24;8.25;;;7.43;;
51806;SDS011;37865;51.304;9.536;2023-06-22T13:59:49;11.43;;;7.65;;
51806;SDS011;37865;51.304;9.536;2023-06-22T14:02:15;9.80;;;7.38;;
51806;SDS011;37865;51.304;9.536;2023-06-22T14:04:40;14.93;;;8.20;;
51806;SDS011;37865;51.304;9.536;2023-06-22T14:07:05;9.77;;;8.23;;
51806;SDS011;37865;51.304;9.536;2023-06-22T14:09:31;12.48;;;8.35;;
51806;SDS011;37865;51.304;9.536;2023-06-22T14:11:56;9.68;;;8.18;;
51806;SDS011;37865;51.304;9.536;2023-06-22T14:14:21;11.13;;;7.68;;
51806;SDS011;37865;51.304;9.536;2023-06-22T14:16:47;8.63;;;7.80;;
51806;SDS011;37865;51.304;9.536;2023-06-22T14:19:14;14.15;;;7.68;;
51806;SDS011;37865;51.304;9.536;2023-06-22T14:21:41;11.45;;;7.78;;
51806;SDS011;37865;51.304;9.536;2023-06-22T14:24:07;12.32;;;7.53;;
51806;SDS011;37865;51.304;9.536;2023-06-22T14:26:32;11.23;;;8.38;;
51806;SDS011;37865;51.304;9.536;2023-06-22T14:28:58;11.02;;;7.78;;
51806;SDS011;37865;51.304;9.536;2023-06-22T14:31:23;7.40;;;6.68;;
51806;SDS011;37865;51.304;9.536;2023-06-22T14:33:49;8.43;;;7.72;;
51806;SDS011;37865;51.304;9.536;2023-06-22T14:36:15;8.50;;;7.57;;
51806;SDS011;37865;51.304;9.536;2023-06-22T14:38:42;25.77;;;5.95;;